createdAt,value
2019-04-30T00:01:32.605Z,2.10
2019-04-30T00:06:39.445Z,2.30
2019-04-30T00:11:46.084Z,2.10
2019-04-30T00:16:54.677Z,2.50
2019-04-30T00:22:00.665Z,2.40
2019-04-30T00:27:06.239Z,2.67
2019-04-30T00:32:12.150Z,3.40
2019-04-30T00:37:18.823Z,2.30
2019-04-30T00:42:28.539Z,1.77
2019-04-30T00:47:32.329Z,1.83
2019-04-30T00:52:38.164Z,1.77
2019-04-30T00:57:47.099Z,2.60
2019-04-30T01:03:17.176Z,2.43
2019-04-30T01:08:27.150Z,1.87
2019-04-30T01:13:30.593Z,2.00
2019-04-30T01:18:36.080Z,2.53
2019-04-30T01:23:51.784Z,2.70
2019-04-30T01:28:53.745Z,2.00
2019-04-30T01:33:58.987Z,1.90
2019-04-30T01:39:05.240Z,3.20
2019-04-30T01:44:12.119Z,2.03
2019-04-30T01:49:20.057Z,2.20
2019-04-30T01:54:25.728Z,2.20
2019-04-30T01:59:50.126Z,2.27
2019-04-30T02:04:56.305Z,1.87
2019-04-30T02:10:02.038Z,1.60
2019-04-30T02:15:09.485Z,1.77
2019-04-30T02:20:15.194Z,1.47
2019-04-30T02:25:21.094Z,1.43
2019-04-30T02:30:26.842Z,1.10
2019-04-30T02:35:45.435Z,1.10
2019-04-30T02:40:53.022Z,1.20
2019-04-30T02:46:00.033Z,1.30
2019-04-30T02:51:10.080Z,1.87
2019-04-30T02:56:15.853Z,1.10
2019-04-30T03:01:21.510Z,0.97
2019-04-30T03:06:29.703Z,1.10
2019-04-30T03:11:34.921Z,1.00
2019-04-30T03:17:00.137Z,1.27
2019-04-30T03:22:13.296Z,0.97
2019-04-30T03:27:21.070Z,0.70
2019-04-30T03:32:35.638Z,0.80
2019-04-30T03:37:34.171Z,1.17
2019-04-30T03:42:39.799Z,0.40
2019-04-30T03:47:45.591Z,0.50
2019-04-30T03:52:51.231Z,0.60
2019-04-30T03:58:00.141Z,0.50
2019-04-30T04:03:10.084Z,0.50
2019-04-30T04:08:29.583Z,0.50
2019-04-30T04:13:35.464Z,0.40
2019-04-30T04:18:41.228Z,0.40
2019-04-30T04:23:49.175Z,0.30
2019-04-30T04:28:54.286Z,0.40
2019-04-30T04:34:00.263Z,0.30
2019-04-30T04:39:06.747Z,0.40
2019-04-30T04:44:13.074Z,0.30
2019-04-30T04:49:20.634Z,0.30
2019-04-30T04:54:25.697Z,0.30
2019-04-30T04:59:31.113Z,0.30
2019-04-30T05:04:36.785Z,0.30
2019-04-30T05:09:42.341Z,0.30
2019-04-30T05:14:48.458Z,0.30
2019-04-30T05:19:54.099Z,0.37
2019-04-30T05:25:00.287Z,1.53
2019-04-30T05:30:06.964Z,0.10
2019-04-30T05:35:12.388Z,0.20
2019-04-30T05:40:18.895Z,0.30
2019-04-30T05:45:24.923Z,0.30
2019-04-30T05:50:30.905Z,0.23
2019-04-30T05:55:36.344Z,0.20
2019-04-30T06:00:42.147Z,1.17
2019-04-30T06:05:49.254Z,0.30
2019-04-30T06:11:19.830Z,0.30
2019-04-30T06:16:27.116Z,0.30
2019-04-30T06:21:33.000Z,0.93
2019-04-30T06:26:39.385Z,0.20
2019-04-30T06:31:46.325Z,0.40
2019-04-30T06:36:54.154Z,1.50
2019-04-30T06:42:06.921Z,1.37
2019-04-30T06:47:09.125Z,0.50
2019-04-30T06:52:20.738Z,0.30
2019-04-30T06:57:22.350Z,0.50
2019-04-30T07:02:30.670Z,0.20
2019-04-30T07:07:38.985Z,0.40
2019-04-30T07:12:49.229Z,0.30
2019-04-30T07:17:54.884Z,3.03
2019-04-30T07:23:03.262Z,0.50
2019-04-30T07:28:08.979Z,0.30
2019-04-30T07:33:15.112Z,0.30
2019-04-30T07:38:21.139Z,0.30
2019-04-30T07:43:28.812Z,0.40
2019-04-30T07:48:34.627Z,0.77
2019-04-30T07:53:40.609Z,0.37
2019-04-30T07:58:46.609Z,0.30
2019-04-30T08:04:16.052Z,0.30
2019-04-30T08:09:22.247Z,0.77
2019-04-30T08:14:28.814Z,0.30
2019-04-30T08:19:35.797Z,0.33
2019-04-30T08:24:41.569Z,12.07
2019-04-30T08:29:49.862Z,0.70
2019-04-30T08:34:55.638Z,0.50
2019-04-30T08:40:03.448Z,0.30
2019-04-30T08:45:09.569Z,3.23
2019-04-30T08:50:16.539Z,0.80
2019-04-30T08:55:22.433Z,0.60
2019-04-30T09:00:29.725Z,0.40
2019-04-30T09:05:53.361Z,0.40
2019-04-30T09:10:59.641Z,0.83
2019-04-30T09:16:09.264Z,0.50
2019-04-30T09:21:18.680Z,0.40
2019-04-30T09:26:24.705Z,0.33
2019-04-30T09:31:30.208Z,0.60
2019-04-30T09:36:35.879Z,0.50
2019-04-30T09:41:41.651Z,0.70
2019-04-30T09:46:48.901Z,0.60
2019-04-30T09:51:55.930Z,0.60
2019-04-30T09:57:01.759Z,0.97
2019-04-30T10:02:09.324Z,0.40
2019-04-30T10:07:15.328Z,0.53
2019-04-30T10:12:21.226Z,0.50
2019-04-30T10:17:41.344Z,0.40
2019-04-30T10:22:47.224Z,0.67
2019-04-30T10:27:52.884Z,0.97
2019-04-30T10:33:00.122Z,1.00
2019-04-30T10:38:07.079Z,0.60
2019-04-30T10:43:13.314Z,0.70
2019-04-30T10:48:18.797Z,1.03
2019-04-30T10:53:24.956Z,2.23
2019-04-30T10:58:31.114Z,0.60
2019-04-30T11:03:39.002Z,0.80
2019-04-30T11:08:44.625Z,1.30
2019-04-30T11:13:50.209Z,1.10
2019-04-30T11:18:56.076Z,1.00
2019-04-30T11:24:02.001Z,1.33
2019-04-30T11:29:07.770Z,2.17
2019-04-30T11:34:13.635Z,1.83
2019-04-30T11:39:21.649Z,1.43
2019-04-30T11:44:31.294Z,2.07
2019-04-30T11:49:34.253Z,1.73
2019-04-30T11:54:49.217Z,1.93
2019-04-30T11:59:46.986Z,1.93
2019-04-30T12:04:52.462Z,1.93
2019-04-30T12:10:05.640Z,2.60
2019-04-30T12:15:11.273Z,3.83
2019-04-30T12:20:19.674Z,4.93
2019-04-30T12:25:25.173Z,2.77
2019-04-30T12:30:30.699Z,5.90
2019-04-30T12:35:36.321Z,5.10
2019-04-30T12:40:41.813Z,4.73
2019-04-30T12:45:50.225Z,3.77
2019-04-30T12:51:19.374Z,4.37
2019-04-30T12:56:52.611Z,4.60
2019-04-30T13:01:59.313Z,4.23
2019-04-30T13:07:05.597Z,4.63
2019-04-30T13:12:11.968Z,4.50
2019-04-30T13:17:17.903Z,4.93
2019-04-30T13:22:23.287Z,4.17
2019-04-30T13:27:30.982Z,3.90
2019-04-30T13:32:42.532Z,5.07
2019-04-30T13:37:54.009Z,4.47
2019-04-30T13:43:00.094Z,3.30
2019-04-30T13:48:06.585Z,3.30
2019-04-30T13:53:12.001Z,4.00
2019-04-30T13:58:17.439Z,3.20
2019-04-30T14:03:30.073Z,3.60
2019-04-30T14:08:48.807Z,3.87
2019-04-30T14:13:54.615Z,2.93
2019-04-30T14:19:01.155Z,3.87
2019-04-30T14:24:09.384Z,3.07
2019-04-30T14:29:15.079Z,3.83
2019-04-30T14:34:20.747Z,10.83
2019-04-30T14:39:29.187Z,5.80
2019-04-30T14:44:36.108Z,4.37
2019-04-30T14:50:05.222Z,3.83
2019-04-30T14:55:24.829Z,2.80
2019-04-30T15:00:49.757Z,4.53
2019-04-30T15:05:55.700Z,3.53
2019-04-30T15:11:01.701Z,3.73
2019-04-30T15:16:07.367Z,2.90
2019-04-30T15:21:12.857Z,4.30
2019-04-30T15:26:24.499Z,5.70
2019-04-30T15:31:25.484Z,3.97
2019-04-30T15:36:31.016Z,3.73
2019-04-30T15:41:36.466Z,2.27
2019-04-30T15:46:41.927Z,4.77
2019-04-30T15:51:47.441Z,2.60
2019-04-30T15:56:53.097Z,3.27
2019-04-30T16:02:11.493Z,2.47
2019-04-30T16:07:17.094Z,3.50
2019-04-30T16:12:40.517Z,3.40
2019-04-30T16:17:49.285Z,4.33
2019-04-30T16:22:54.986Z,3.60
2019-04-30T16:28:00.436Z,3.70
2019-04-30T16:33:06.022Z,3.20
2019-04-30T16:38:11.585Z,5.03
2019-04-30T16:43:18.634Z,4.03
2019-04-30T16:48:25.832Z,7.97
2019-04-30T16:53:31.397Z,3.93
2019-04-30T16:58:54.382Z,4.70
2019-04-30T17:04:06.468Z,3.03
2019-04-30T17:09:17.704Z,4.13
2019-04-30T17:14:23.213Z,5.13
2019-04-30T17:19:29.168Z,5.80
2019-04-30T17:24:35.865Z,5.60
2019-04-30T17:29:41.412Z,4.07
2019-04-30T17:34:49.131Z,4.00
2019-04-30T17:39:54.202Z,4.90
2019-04-30T17:45:01.876Z,6.53
2019-04-30T17:50:09.088Z,4.17
2019-04-30T17:55:14.913Z,4.87
2019-04-30T18:00:22.414Z,4.47
2019-04-30T18:05:29.251Z,5.80
2019-04-30T18:10:35.536Z,4.90
2019-04-30T18:15:41.138Z,5.17
2019-04-30T18:21:04.455Z,6.27
2019-04-30T18:26:12.552Z,6.73
2019-04-30T18:31:18.711Z,8.20
2019-04-30T18:36:24.417Z,7.10
2019-04-30T18:41:30.003Z,7.37
2019-04-30T18:46:36.449Z,7.63
2019-04-30T18:51:42.829Z,5.97
2019-04-30T18:56:48.961Z,6.20
2019-04-30T19:01:54.673Z,8.10
2019-04-30T19:07:04.328Z,7.87
2019-04-30T19:12:29.194Z,5.57
2019-04-30T19:17:50.879Z,6.83
2019-04-30T19:22:56.423Z,7.70
2019-04-30T19:28:11.255Z,7.97
2019-04-30T19:33:09.234Z,8.17
2019-04-30T19:38:16.315Z,5.93
2019-04-30T19:43:21.912Z,5.90
2019-04-30T19:48:27.597Z,8.53
2019-04-30T19:53:33.480Z,6.83
2019-04-30T19:58:54.405Z,8.30
2019-04-30T20:03:46.256Z,7.30
2019-04-30T20:08:51.765Z,9.47
2019-04-30T20:13:57.309Z,8.40
2019-04-30T20:19:02.792Z,7.60
2019-04-30T20:24:08.256Z,6.50
2019-04-30T20:29:13.697Z,10.43
2019-04-30T20:34:19.316Z,8.37
2019-04-30T20:39:39.539Z,8.17
2019-04-30T20:44:45.072Z,6.60
2019-04-30T20:49:52.229Z,8.43
2019-04-30T20:54:57.810Z,9.03
2019-04-30T21:00:03.376Z,7.90
2019-04-30T21:05:10.482Z,8.77
2019-04-30T21:10:16.174Z,8.77
2019-04-30T21:15:21.742Z,7.10
2019-04-30T21:20:28.904Z,8.63
2019-04-30T21:25:34.605Z,9.03
2019-04-30T21:30:40.242Z,7.50
2019-04-30T21:35:52.108Z,7.33
2019-04-30T21:41:00.899Z,8.43
2019-04-30T21:46:04.865Z,6.83
2019-04-30T21:51:10.308Z,9.63
2019-04-30T21:56:15.948Z,8.27
2019-04-30T22:01:28.167Z,7.60
2019-04-30T22:06:33.747Z,7.60
2019-04-30T22:11:39.548Z,8.53
2019-04-30T22:16:45.178Z,8.57
2019-04-30T22:21:50.642Z,8.33
2019-04-30T22:26:56.169Z,10.37
2019-04-30T22:32:01.638Z,7.63
2019-04-30T22:37:08.542Z,8.63
2019-04-30T22:42:31.296Z,10.03
2019-04-30T22:47:37.014Z,8.27
2019-04-30T22:52:42.430Z,8.50
2019-04-30T22:57:47.954Z,8.93
2019-04-30T23:02:58.010Z,9.13
2019-04-30T23:08:03.464Z,7.63
2019-04-30T23:13:09.137Z,6.83
2019-04-30T23:18:14.709Z,13.53
2019-04-30T23:23:20.123Z,8.97
2019-04-30T23:28:25.797Z,6.90
2019-04-30T23:33:31.333Z,8.00
2019-04-30T23:38:36.861Z,7.57
2019-04-30T23:43:42.296Z,8.17
2019-04-30T23:48:47.908Z,7.47
2019-04-30T23:53:53.281Z,6.63
2019-04-30T23:58:58.925Z,7.83
